sensor_id;sensor_type;location;lat;lon;timestamp;P1;durP1;ratioP1;P2;durP2;ratioP2
53151;SDS011;39234;53.158;6.322;2023-03-01T00:01:28;251.43;;;18.38;;
53151;SDS011;39234;53.158;6.322;2023-03-01T00:03:55;191.02;;;16.85;;
53151;SDS011;39234;53.158;6.322;2023-03-01T00:06:21;57.13;;;13.38;;
53151;SDS011;39234;53.158;6.322;2023-03-01T00:08:48;23.52;;;10.43;;
53151;SDS011;39234;53.158;6.322;2023-03-01T00:11:15;54.25;;;13.80;;
53151;SDS011;39234;53.158;6.322;2023-03-01T00:13:42;20.33;;;10.60;;
53151;SDS011;39234;53.158;6.322;2023-03-01T00:16:10;98.20;;;15.25;;
53151;SDS011;39234;53.158;6.322;2023-03-01T00:18:36;226.38;;;20.45;;
53151;SDS011;39234;53.158;6.322;2023-03-01T00:21:03;185.27;;;18.65;;
53151;SDS011;39234;53.158;6.322;2023-03-01T00:23:29;196.95;;;19.67;;
53151;SDS011;39234;53.158;6.322;2023-03-01T00:25:55;128.50;;;19.25;;
53151;SDS011;39234;53.158;6.322;2023-03-01T00:28:21;25.88;;;14.55;;
53151;SDS011;39234;53.158;6.322;2023-03-01T00:30:47;125.95;;;17.98;;
53151;SDS011;39234;53.158;6.322;2023-03-01T00:33:13;328.02;;;22.75;;
53151;SDS011;39234;53.158;6.322;2023-03-01T00:35:39;86.43;;;17.60;;
53151;SDS011;39234;53.158;6.322;2023-03-01T00:38:06;111.65;;;18.10;;
53151;SDS011;39234;53.158;6.322;2023-03-01T00:40:33;168.27;;;18.42;;
53151;SDS011;39234;53.158;6.322;2023-03-01T00:42:59;248.20;;;21.20;;
53151;SDS011;39234;53.158;6.322;2023-03-01T00:45:25;203.82;;;19.40;;
53151;SDS011;39234;53.158;6.322;2023-03-01T00:47:52;256.58;;;21.00;;
53151;SDS011;39234;53.158;6.322;2023-03-01T00:50:18;193.40;;;19.42;;
53151;SDS011;39234;53.158;6.322;2023-03-01T00:52:44;428.27;;;26.80;;
53151;SDS011;39234;53.158;6.322;2023-03-01T00:55:11;246.25;;;21.80;;
53151;SDS011;39234;53.158;6.322;2023-03-01T00:57:37;321.15;;;23.58;;
53151;SDS011;39234;53.158;6.322;2023-03-01T01:00:06;336.27;;;23.08;;
53151;SDS011;39234;53.158;6.322;2023-03-01T01:02:34;207.73;;;19.50;;
53151;SDS011;39234;53.158;6.322;2023-03-01T01:05:00;163.45;;;17.77;;
53151;SDS011;39234;53.158;6.322;2023-03-01T01:07:26;139.55;;;16.50;;
53151;SDS011;39234;53.158;6.322;2023-03-01T01:09:53;105.10;;;15.38;;
53151;SDS011;39234;53.158;6.322;2023-03-01T01:12:19;121.03;;;14.48;;
53151;SDS011;39234;53.158;6.322;2023-03-01T01:14:45;90.22;;;14.20;;
53151;SDS011;39234;53.158;6.322;2023-03-01T01:17:11;90.50;;;15.20;;
53151;SDS011;39234;53.158;6.322;2023-03-01T01:19:37;110.05;;;14.90;;
53151;SDS011;39234;53.158;6.322;2023-03-01T01:22:03;173.88;;;16.38;;
53151;SDS011;39234;53.158;6.322;2023-03-01T01:24:29;172.73;;;17.35;;
53151;SDS011;39234;53.158;6.322;2023-03-01T01:26:55;148.85;;;15.13;;
53151;SDS011;39234;53.158;6.322;2023-03-01T01:29:22;112.85;;;14.45;;
53151;SDS011;39234;53.158;6.322;2023-03-01T01:31:48;79.18;;;14.07;;
53151;SDS011;39234;53.158;6.322;2023-03-01T01:34:15;92.53;;;14.32;;
53151;SDS011;39234;53.158;6.322;2023-03-01T01:36:42;77.53;;;11.30;;
53151;SDS011;39234;53.158;6.322;2023-03-01T01:39:08;152.18;;;13.57;;
53151;SDS011;39234;53.158;6.322;2023-03-01T01:41:38;80.45;;;12.05;;
53151;SDS011;39234;53.158;6.322;2023-03-01T01:44:12;130.13;;;13.80;;
53151;SDS011;39234;53.158;6.322;2023-03-01T01:46:40;165.40;;;14.98;;
53151;SDS011;39234;53.158;6.322;2023-03-01T01:49:07;81.15;;;13.43;;
53151;SDS011;39234;53.158;6.322;2023-03-01T01:51:39;106.90;;;11.65;;
53151;SDS011;39234;53.158;6.322;2023-03-01T01:54:12;96.30;;;12.77;;
53151;SDS011;39234;53.158;6.322;2023-03-01T01:56:46;108.97;;;12.57;;
53151;SDS011;39234;53.158;6.322;2023-03-01T01:59:13;71.32;;;11.68;;
53151;SDS011;39234;53.158;6.322;2023-03-01T02:01:40;39.08;;;12.35;;
53151;SDS011;39234;53.158;6.322;2023-03-01T02:04:06;16.35;;;10.90;;
53151;SDS011;39234;53.158;6.322;2023-03-01T02:06:34;76.68;;;12.27;;
53151;SDS011;39234;53.158;6.322;2023-03-01T02:09:04;87.22;;;13.35;;
53151;SDS011;39234;53.158;6.322;2023-03-01T02:11:31;102.95;;;14.02;;
53151;SDS011;39234;53.158;6.322;2023-03-01T02:13:58;169.85;;;14.45;;
53151;SDS011;39234;53.158;6.322;2023-03-01T02:16:24;156.65;;;15.32;;
53151;SDS011;39234;53.158;6.322;2023-03-01T02:18:51;128.55;;;14.55;;
53151;SDS011;39234;53.158;6.322;2023-03-01T02:23:50;63.30;;;10.98;;
53151;SDS011;39234;53.158;6.322;2023-03-01T02:26:51;141.60;;;14.65;;
53151;SDS011;39234;53.158;6.322;2023-03-01T02:29:09;218.40;;;15.50;;
53151;SDS011;39234;53.158;6.322;2023-03-01T02:31:35;190.70;;;14.82;;
53151;SDS011;39234;53.158;6.322;2023-03-01T02:34:28;120.80;;;11.48;;
53151;SDS011;39234;53.158;6.322;2023-03-01T02:36:58;209.32;;;14.85;;
53151;SDS011;39234;53.158;6.322;2023-03-01T02:39:27;168.20;;;16.52;;
53151;SDS011;39234;53.158;6.322;2023-03-01T02:41:54;154.55;;;14.75;;
53151;SDS011;39234;53.158;6.322;2023-03-01T02:44:22;222.02;;;15.23;;
53151;SDS011;39234;53.158;6.322;2023-03-01T02:46:50;217.15;;;14.60;;
53151;SDS011;39234;53.158;6.322;2023-03-01T02:49:21;244.85;;;15.52;;
53151;SDS011;39234;53.158;6.322;2023-03-01T02:51:52;171.55;;;14.80;;
53151;SDS011;39234;53.158;6.322;2023-03-01T02:56:46;135.90;;;12.32;;
53151;SDS011;39234;53.158;6.322;2023-03-01T02:59:13;146.45;;;12.80;;
53151;SDS011;39234;53.158;6.322;2023-03-01T03:01:40;135.82;;;13.07;;
53151;SDS011;39234;53.158;6.322;2023-03-01T03:04:08;216.15;;;16.88;;
53151;SDS011;39234;53.158;6.322;2023-03-01T03:06:35;204.10;;;15.20;;
53151;SDS011;39234;53.158;6.322;2023-03-01T03:09:02;213.63;;;17.75;;
53151;SDS011;39234;53.158;6.322;2023-03-01T03:11:29;202.68;;;19.33;;
53151;SDS011;39234;53.158;6.322;2023-03-01T03:13:55;110.03;;;15.60;;
53151;SDS011;39234;53.158;6.322;2023-03-01T03:16:22;86.93;;;13.75;;
53151;SDS011;39234;53.158;6.322;2023-03-01T03:18:49;291.52;;;20.50;;
53151;SDS011;39234;53.158;6.322;2023-03-01T03:21:16;217.07;;;20.25;;
53151;SDS011;39234;53.158;6.322;2023-03-01T03:23:42;179.98;;;18.70;;
53151;SDS011;39234;53.158;6.322;2023-03-01T03:26:08;294.58;;;19.98;;
53151;SDS011;39234;53.158;6.322;2023-03-01T03:28:38;261.25;;;17.17;;
53151;SDS011;39234;53.158;6.322;2023-03-01T03:31:05;346.85;;;19.65;;
53151;SDS011;39234;53.158;6.322;2023-03-01T03:33:31;305.98;;;20.80;;
53151;SDS011;39234;53.158;6.322;2023-03-01T03:35:58;318.25;;;17.15;;
53151;SDS011;39234;53.158;6.322;2023-03-01T03:38:24;231.88;;;18.33;;
53151;SDS011;39234;53.158;6.322;2023-03-01T03:40:51;256.85;;;17.15;;
53151;SDS011;39234;53.158;6.322;2023-03-01T03:43:19;272.05;;;18.92;;
53151;SDS011;39234;53.158;6.322;2023-03-01T03:45:46;271.90;;;19.92;;
53151;SDS011;39234;53.158;6.322;2023-03-01T03:48:12;247.68;;;17.92;;
53151;SDS011;39234;53.158;6.322;2023-03-01T03:50:38;128.80;;;15.05;;
53151;SDS011;39234;53.158;6.322;2023-03-01T03:53:06;125.85;;;13.75;;
53151;SDS011;39234;53.158;6.322;2023-03-01T03:55:32;94.35;;;15.50;;
53151;SDS011;39234;53.158;6.322;2023-03-01T03:57:59;217.27;;;19.15;;
53151;SDS011;39234;53.158;6.322;2023-03-01T04:00:31;196.65;;;16.35;;
53151;SDS011;39234;53.158;6.322;2023-03-01T04:02:58;143.20;;;14.40;;
53151;SDS011;39234;53.158;6.322;2023-03-01T04:05:24;183.60;;;15.90;;
53151;SDS011;39234;53.158;6.322;2023-03-01T04:07:50;258.65;;;21.38;;
53151;SDS011;39234;53.158;6.322;2023-03-01T04:10:26;210.65;;;18.27;;
53151;SDS011;39234;53.158;6.322;2023-03-01T04:12:52;233.38;;;17.83;;
53151;SDS011;39234;53.158;6.322;2023-03-01T04:15:21;147.85;;;15.05;;
53151;SDS011;39234;53.158;6.322;2023-03-01T04:17:49;267.08;;;19.55;;
53151;SDS011;39234;53.158;6.322;2023-03-01T04:20:16;204.60;;;16.25;;
53151;SDS011;39234;53.158;6.322;2023-03-01T04:22:43;255.85;;;17.33;;
53151;SDS011;39234;53.158;6.322;2023-03-01T04:25:13;286.92;;;20.30;;
53151;SDS011;39234;53.158;6.322;2023-03-01T04:27:39;102.63;;;11.02;;
53151;SDS011;39234;53.158;6.322;2023-03-01T04:30:06;167.05;;;14.35;;
53151;SDS011;39234;53.158;6.322;2023-03-01T04:32:32;186.27;;;16.13;;
53151;SDS011;39234;53.158;6.322;2023-03-01T04:34:59;214.32;;;17.40;;
53151;SDS011;39234;53.158;6.322;2023-03-01T04:37:25;145.82;;;12.90;;
53151;SDS011;39234;53.158;6.322;2023-03-01T04:39:51;133.68;;;13.05;;
53151;SDS011;39234;53.158;6.322;2023-03-01T04:42:17;237.20;;;17.88;;
53151;SDS011;39234;53.158;6.322;2023-03-01T04:44:44;226.35;;;18.13;;
53151;SDS011;39234;53.158;6.322;2023-03-01T04:47:11;259.52;;;18.77;;
53151;SDS011;39234;53.158;6.322;2023-03-01T04:49:37;220.95;;;17.13;;
53151;SDS011;39234;53.158;6.322;2023-03-01T04:52:03;191.55;;;18.60;;
53151;SDS011;39234;53.158;6.322;2023-03-01T04:54:30;98.40;;;15.35;;
53151;SDS011;39234;53.158;6.322;2023-03-01T04:56:58;84.60;;;17.27;;
53151;SDS011;39234;53.158;6.322;2023-03-01T04:59:24;117.28;;;15.20;;
53151;SDS011;39234;53.158;6.322;2023-03-01T05:01:50;60.25;;;15.18;;
53151;SDS011;39234;53.158;6.322;2023-03-01T05:04:17;163.10;;;17.23;;
53151;SDS011;39234;53.158;6.322;2023-03-01T05:06:43;44.90;;;13.43;;
53151;SDS011;39234;53.158;6.322;2023-03-01T05:09:09;30.00;;;12.85;;
53151;SDS011;39234;53.158;6.322;2023-03-01T05:11:36;65.90;;;14.05;;
53151;SDS011;39234;53.158;6.322;2023-03-01T05:14:03;139.95;;;14.65;;
53151;SDS011;39234;53.158;6.322;2023-03-01T05:16:29;79.75;;;14.23;;
53151;SDS011;39234;53.158;6.322;2023-03-01T05:18:56;140.05;;;17.25;;
53151;SDS011;39234;53.158;6.322;2023-03-01T05:21:22;125.80;;;16.23;;
53151;SDS011;39234;53.158;6.322;2023-03-01T05:23:48;126.18;;;15.48;;
53151;SDS011;39234;53.158;6.322;2023-03-01T05:26:15;73.72;;;13.35;;
53151;SDS011;39234;53.158;6.322;2023-03-01T05:28:42;64.13;;;12.65;;
53151;SDS011;39234;53.158;6.322;2023-03-01T05:31:09;99.25;;;15.32;;
53151;SDS011;39234;53.158;6.322;2023-03-01T05:33:39;48.40;;;13.10;;
53151;SDS011;39234;53.158;6.322;2023-03-01T05:36:05;28.77;;;12.05;;
53151;SDS011;39234;53.158;6.322;2023-03-01T05:38:32;48.88;;;13.27;;
53151;SDS011;39234;53.158;6.322;2023-03-01T05:40:58;127.75;;;15.35;;
53151;SDS011;39234;53.158;6.322;2023-03-01T05:43:24;43.95;;;11.68;;
53151;SDS011;39234;53.158;6.322;2023-03-01T05:45:51;34.65;;;11.73;;
53151;SDS011;39234;53.158;6.322;2023-03-01T05:48:17;55.33;;;12.15;;
53151;SDS011;39234;53.158;6.322;2023-03-01T05:50:44;45.70;;;13.85;;
53151;SDS011;39234;53.158;6.322;2023-03-01T05:53:16;77.25;;;13.43;;
53151;SDS011;39234;53.158;6.322;2023-03-01T05:55:43;20.92;;;12.25;;
53151;SDS011;39234;53.158;6.322;2023-03-01T05:58:13;26.52;;;12.55;;
53151;SDS011;39234;53.158;6.322;2023-03-01T06:00:39;20.67;;;12.07;;
53151;SDS011;39234;53.158;6.322;2023-03-01T06:03:06;18.25;;;12.75;;
53151;SDS011;39234;53.158;6.322;2023-03-01T06:05:32;19.58;;;12.77;;
53151;SDS011;39234;53.158;6.322;2023-03-01T06:07:58;17.63;;;10.70;;
53151;SDS011;39234;53.158;6.322;2023-03-01T06:10:24;21.55;;;11.82;;
53151;SDS011;39234;53.158;6.322;2023-03-01T06:12:50;21.33;;;11.82;;
53151;SDS011;39234;53.158;6.322;2023-03-01T06:15:17;15.68;;;10.77;;
53151;SDS011;39234;53.158;6.322;2023-03-01T06:17:43;19.88;;;11.45;;
53151;SDS011;39234;53.158;6.322;2023-03-01T06:22:37;18.60;;;10.90;;
53151;SDS011;39234;53.158;6.322;2023-03-01T06:25:03;16.30;;;11.13;;
53151;SDS011;39234;53.158;6.322;2023-03-01T06:27:29;17.48;;;10.43;;
53151;SDS011;39234;53.158;6.322;2023-03-01T06:29:55;20.10;;;11.18;;
53151;SDS011;39234;53.158;6.322;2023-03-01T06:32:22;16.98;;;11.30;;
53151;SDS011;39234;53.158;6.322;2023-03-01T06:34:48;17.85;;;10.68;;
53151;SDS011;39234;53.158;6.322;2023-03-01T06:37:15;18.70;;;11.18;;
53151;SDS011;39234;53.158;6.322;2023-03-01T06:39:41;18.50;;;10.63;;
53151;SDS011;39234;53.158;6.322;2023-03-01T06:42:07;17.58;;;10.75;;
53151;SDS011;39234;53.158;6.322;2023-03-01T06:44:35;19.23;;;11.48;;
53151;SDS011;39234;53.158;6.322;2023-03-01T06:47:01;21.00;;;10.90;;
53151;SDS011;39234;53.158;6.322;2023-03-01T06:49:28;22.02;;;14.40;;
53151;SDS011;39234;53.158;6.322;2023-03-01T06:51:55;23.42;;;13.70;;
53151;SDS011;39234;53.158;6.322;2023-03-01T06:54:21;24.33;;;15.13;;
53151;SDS011;39234;53.158;6.322;2023-03-01T06:56:47;23.05;;;13.50;;
53151;SDS011;39234;53.158;6.322;2023-03-01T06:59:14;21.77;;;13.13;;
53151;SDS011;39234;53.158;6.322;2023-03-01T07:01:40;22.08;;;13.48;;
53151;SDS011;39234;53.158;6.322;2023-03-01T07:04:06;21.83;;;12.73;;
53151;SDS011;39234;53.158;6.322;2023-03-01T07:06:32;21.25;;;13.50;;
53151;SDS011;39234;53.158;6.322;2023-03-01T07:08:58;19.75;;;12.30;;
53151;SDS011;39234;53.158;6.322;2023-03-01T07:11:25;18.08;;;12.40;;
53151;SDS011;39234;53.158;6.322;2023-03-01T07:13:51;19.60;;;13.02;;
53151;SDS011;39234;53.158;6.322;2023-03-01T07:16:17;20.70;;;13.48;;
53151;SDS011;39234;53.158;6.322;2023-03-01T07:18:45;21.17;;;13.20;;
53151;SDS011;39234;53.158;6.322;2023-03-01T07:21:12;21.17;;;14.57;;
53151;SDS011;39234;53.158;6.322;2023-03-01T07:23:38;26.20;;;16.45;;
53151;SDS011;39234;53.158;6.322;2023-03-01T07:26:04;25.38;;;15.80;;
53151;SDS011;39234;53.158;6.322;2023-03-01T07:28:30;23.38;;;15.90;;
53151;SDS011;39234;53.158;6.322;2023-03-01T07:31:04;25.50;;;16.25;;
53151;SDS011;39234;53.158;6.322;2023-03-01T07:33:31;24.55;;;16.48;;
53151;SDS011;39234;53.158;6.322;2023-03-01T07:36:01;22.83;;;14.88;;
53151;SDS011;39234;53.158;6.322;2023-03-01T07:38:30;23.83;;;16.33;;
53151;SDS011;39234;53.158;6.322;2023-03-01T07:41:00;28.08;;;17.63;;
53151;SDS011;39234;53.158;6.322;2023-03-01T07:43:30;22.20;;;14.70;;
53151;SDS011;39234;53.158;6.322;2023-03-01T07:45:59;22.88;;;15.10;;
53151;SDS011;39234;53.158;6.322;2023-03-01T07:48:26;17.77;;;12.73;;
53151;SDS011;39234;53.158;6.322;2023-03-01T07:50:52;17.88;;;13.07;;
53151;SDS011;39234;53.158;6.322;2023-03-01T07:53:18;18.38;;;12.65;;
53151;SDS011;39234;53.158;6.322;2023-03-01T07:55:45;20.33;;;13.35;;
53151;SDS011;39234;53.158;6.322;2023-03-01T07:58:11;19.42;;;14.45;;
53151;SDS011;39234;53.158;6.322;2023-03-01T08:00:37;20.85;;;14.77;;
53151;SDS011;39234;53.158;6.322;2023-03-01T08:03:03;19.48;;;14.20;;
53151;SDS011;39234;53.158;6.322;2023-03-01T08:05:29;20.83;;;15.57;;
53151;SDS011;39234;53.158;6.322;2023-03-01T08:07:55;21.50;;;14.80;;
53151;SDS011;39234;53.158;6.322;2023-03-01T08:10:21;22.13;;;15.90;;
53151;SDS011;39234;53.158;6.322;2023-03-01T08:12:47;23.33;;;15.88;;
53151;SDS011;39234;53.158;6.322;2023-03-01T08:15:13;25.92;;;16.33;;
53151;SDS011;39234;53.158;6.322;2023-03-01T08:17:40;26.70;;;15.38;;
53151;SDS011;39234;53.158;6.322;2023-03-01T08:20:06;30.63;;;17.20;;
53151;SDS011;39234;53.158;6.322;2023-03-01T08:22:32;26.52;;;15.45;;
53151;SDS011;39234;53.158;6.322;2023-03-01T08:24:58;23.85;;;15.07;;
53151;SDS011;39234;53.158;6.322;2023-03-01T08:27:24;23.63;;;15.95;;
53151;SDS011;39234;53.158;6.322;2023-03-01T08:29:50;22.30;;;14.98;;
53151;SDS011;39234;53.158;6.322;2023-03-01T08:32:17;28.02;;;16.48;;
53151;SDS011;39234;53.158;6.322;2023-03-01T08:34:45;27.85;;;16.25;;
53151;SDS011;39234;53.158;6.322;2023-03-01T08:37:11;21.63;;;15.35;;
53151;SDS011;39234;53.158;6.322;2023-03-01T08:39:37;23.33;;;15.43;;
53151;SDS011;39234;53.158;6.322;2023-03-01T08:42:04;21.23;;;14.93;;
53151;SDS011;39234;53.158;6.322;2023-03-01T08:44:29;23.55;;;15.32;;
53151;SDS011;39234;53.158;6.322;2023-03-01T08:46:55;25.23;;;17.25;;
53151;SDS011;39234;53.158;6.322;2023-03-01T08:49:22;24.35;;;16.98;;
53151;SDS011;39234;53.158;6.322;2023-03-01T08:51:49;26.60;;;17.20;;
53151;SDS011;39234;53.158;6.322;2023-03-01T08:54:17;22.67;;;17.27;;
53151;SDS011;39234;53.158;6.322;2023-03-01T08:56:44;27.75;;;18.77;;
53151;SDS011;39234;53.158;6.322;2023-03-01T08:59:11;25.48;;;18.08;;
53151;SDS011;39234;53.158;6.322;2023-03-01T09:01:37;26.48;;;18.25;;
53151;SDS011;39234;53.158;6.322;2023-03-01T09:04:05;23.40;;;18.77;;
53151;SDS011;39234;53.158;6.322;2023-03-01T09:06:31;23.05;;;17.92;;
53151;SDS011;39234;53.158;6.322;2023-03-01T09:08:58;23.30;;;18.33;;
53151;SDS011;39234;53.158;6.322;2023-03-01T09:11:25;21.52;;;16.65;;
53151;SDS011;39234;53.158;6.322;2023-03-01T09:13:51;24.08;;;18.17;;
53151;SDS011;39234;53.158;6.322;2023-03-01T09:16:18;22.25;;;17.83;;
53151;SDS011;39234;53.158;6.322;2023-03-01T09:18:48;21.80;;;17.40;;
53151;SDS011;39234;53.158;6.322;2023-03-01T09:21:16;22.95;;;18.80;;
53151;SDS011;39234;53.158;6.322;2023-03-01T09:23:44;23.25;;;18.67;;
53151;SDS011;39234;53.158;6.322;2023-03-01T09:26:12;23.80;;;18.50;;
53151;SDS011;39234;53.158;6.322;2023-03-01T09:28:44;26.73;;;19.42;;
53151;SDS011;39234;53.158;6.322;2023-03-01T09:31:14;24.50;;;20.20;;
53151;SDS011;39234;53.158;6.322;2023-03-01T09:33:41;23.33;;;19.85;;
53151;SDS011;39234;53.158;6.322;2023-03-01T09:36:09;26.58;;;19.33;;
53151;SDS011;39234;53.158;6.322;2023-03-01T09:38:37;21.45;;;17.38;;
53151;SDS011;39234;53.158;6.322;2023-03-01T09:41:09;24.95;;;18.58;;
53151;SDS011;39234;53.158;6.322;2023-03-01T09:43:55;23.05;;;19.23;;
53151;SDS011;39234;53.158;6.322;2023-03-01T09:46:37;19.83;;;15.38;;
53151;SDS011;39234;53.158;6.322;2023-03-01T09:49:18;21.90;;;17.13;;
53151;SDS011;39234;53.158;6.322;2023-03-01T09:51:57;19.90;;;16.55;;
53151;SDS011;39234;53.158;6.322;2023-03-01T09:54:44;22.15;;;17.05;;
53151;SDS011;39234;53.158;6.322;2023-03-01T09:57:13;18.65;;;15.93;;
53151;SDS011;39234;53.158;6.322;2023-03-01T09:59:58;19.70;;;14.68;;
53151;SDS011;39234;53.158;6.322;2023-03-01T10:02:28;16.20;;;11.88;;
53151;SDS011;39234;53.158;6.322;2023-03-01T10:05:14;18.23;;;13.85;;
53151;SDS011;39234;53.158;6.322;2023-03-01T10:11:04;18.05;;;12.30;;
53151;SDS011;39234;53.158;6.322;2023-03-01T10:13:45;20.48;;;12.52;;
53151;SDS011;39234;53.158;6.322;2023-03-01T10:16:22;20.75;;;12.65;;
53151;SDS011;39234;53.158;6.322;2023-03-01T10:19:10;15.98;;;10.90;;
53151;SDS011;39234;53.158;6.322;2023-03-01T10:21:43;14.82;;;10.88;;
53151;SDS011;39234;53.158;6.322;2023-03-01T10:24:12;17.48;;;10.52;;
53151;SDS011;39234;53.158;6.322;2023-03-01T10:29:07;14.90;;;9.88;;
53151;SDS011;39234;53.158;6.322;2023-03-01T10:34:15;15.88;;;10.98;;
53151;SDS011;39234;53.158;6.322;2023-03-01T10:36:43;17.10;;;10.30;;
53151;SDS011;39234;53.158;6.322;2023-03-01T10:39:15;16.92;;;11.27;;
53151;SDS011;39234;53.158;6.322;2023-03-01T10:41:53;15.18;;;12.18;;
53151;SDS011;39234;53.158;6.322;2023-03-01T10:44:43;18.58;;;12.77;;
53151;SDS011;39234;53.158;6.322;2023-03-01T10:47:14;18.70;;;12.60;;
53151;SDS011;39234;53.158;6.322;2023-03-01T10:50:03;18.73;;;13.32;;
53151;SDS011;39234;53.158;6.322;2023-03-01T10:52:35;19.45;;;14.07;;
53151;SDS011;39234;53.158;6.322;2023-03-01T10:57:43;18.33;;;13.30;;
53151;SDS011;39234;53.158;6.322;2023-03-01T11:00:25;22.00;;;14.20;;
53151;SDS011;39234;53.158;6.322;2023-03-01T11:03:13;20.98;;;13.82;;
53151;SDS011;39234;53.158;6.322;2023-03-01T11:05:51;18.08;;;13.60;;
53151;SDS011;39234;53.158;6.322;2023-03-01T11:08:29;15.80;;;11.65;;
53151;SDS011;39234;53.158;6.322;2023-03-01T11:11:03;14.73;;;10.88;;
53151;SDS011;39234;53.158;6.322;2023-03-01T11:16:23;18.10;;;11.20;;
53151;SDS011;39234;53.158;6.322;2023-03-01T11:18:58;19.45;;;12.93;;
53151;SDS011;39234;53.158;6.322;2023-03-01T11:21:26;18.02;;;13.10;;
53151;SDS011;39234;53.158;6.322;2023-03-01T11:23:55;19.67;;;13.20;;
53151;SDS011;39234;53.158;6.322;2023-03-01T11:26:24;19.40;;;14.40;;
53151;SDS011;39234;53.158;6.322;2023-03-01T11:28:51;17.77;;;12.57;;
53151;SDS011;39234;53.158;6.322;2023-03-01T11:31:22;20.93;;;14.67;;
53151;SDS011;39234;53.158;6.322;2023-03-01T11:33:50;18.58;;;13.68;;
53151;SDS011;39234;53.158;6.322;2023-03-01T11:38:55;16.85;;;13.27;;
53151;SDS011;39234;53.158;6.322;2023-03-01T11:41:31;19.08;;;13.00;;
53151;SDS011;39234;53.158;6.322;2023-03-01T11:44:02;16.65;;;11.63;;
53151;SDS011;39234;53.158;6.322;2023-03-01T11:54:34;19.17;;;12.70;;
53151;SDS011;39234;53.158;6.322;2023-03-01T12:00:25;20.75;;;13.55;;
53151;SDS011;39234;53.158;6.322;2023-03-01T12:08:43;19.23;;;9.48;;
53151;SDS011;39234;53.158;6.322;2023-03-01T12:11:32;16.63;;;10.75;;
53151;SDS011;39234;53.158;6.322;2023-03-01T12:17:19;15.27;;;11.85;;
53151;SDS011;39234;53.158;6.322;2023-03-01T12:28:18;16.45;;;11.43;;
53151;SDS011;39234;53.158;6.322;2023-03-01T12:33:26;14.85;;;10.75;;
53151;SDS011;39234;53.158;6.322;2023-03-01T12:39:07;15.82;;;10.32;;
53151;SDS011;39234;53.158;6.322;2023-03-01T12:50:06;14.45;;;9.93;;
53151;SDS011;39234;53.158;6.322;2023-03-01T12:52:52;14.57;;;10.65;;
53151;SDS011;39234;53.158;6.322;2023-03-01T12:55:26;16.40;;;10.82;;
53151;SDS011;39234;53.158;6.322;2023-03-01T13:00:38;16.00;;;10.55;;
53151;SDS011;39234;53.158;6.322;2023-03-01T13:08:27;17.92;;;10.48;;
53151;SDS011;39234;53.158;6.322;2023-03-01T13:11:01;14.32;;;10.93;;
53151;SDS011;39234;53.158;6.322;2023-03-01T13:13:29;13.52;;;11.07;;
53151;SDS011;39234;53.158;6.322;2023-03-01T13:15:55;15.35;;;10.80;;
53151;SDS011;39234;53.158;6.322;2023-03-01T13:20:49;13.20;;;10.32;;
53151;SDS011;39234;53.158;6.322;2023-03-01T13:28:54;17.20;;;9.95;;
53151;SDS011;39234;53.158;6.322;2023-03-01T13:46:52;14.30;;;10.45;;
53151;SDS011;39234;53.158;6.322;2023-03-01T13:49:22;15.13;;;10.52;;
53151;SDS011;39234;53.158;6.322;2023-03-01T13:51:51;16.52;;;9.98;;
53151;SDS011;39234;53.158;6.322;2023-03-01T13:54:30;12.93;;;9.48;;
53151;SDS011;39234;53.158;6.322;2023-03-01T13:56:58;13.98;;;10.10;;
53151;SDS011;39234;53.158;6.322;2023-03-01T13:59:25;13.77;;;10.18;;
53151;SDS011;39234;53.158;6.322;2023-03-01T14:01:59;16.83;;;10.23;;
53151;SDS011;39234;53.158;6.322;2023-03-01T14:04:30;13.23;;;9.52;;
53151;SDS011;39234;53.158;6.322;2023-03-01T14:09:50;14.43;;;9.80;;
53151;SDS011;39234;53.158;6.322;2023-03-01T14:15:02;12.45;;;9.00;;
53151;SDS011;39234;53.158;6.322;2023-03-01T14:20:17;13.23;;;9.27;;
53151;SDS011;39234;53.158;6.322;2023-03-01T14:22:44;11.35;;;8.63;;
53151;SDS011;39234;53.158;6.322;2023-03-01T14:30:55;15.20;;;10.02;;
53151;SDS011;39234;53.158;6.322;2023-03-01T14:41:09;12.30;;;9.10;;
53151;SDS011;39234;53.158;6.322;2023-03-01T14:43:41;14.93;;;10.32;;
53151;SDS011;39234;53.158;6.322;2023-03-01T14:46:17;16.27;;;10.15;;
53151;SDS011;39234;53.158;6.322;2023-03-01T14:48:51;17.08;;;10.55;;
53151;SDS011;39234;53.158;6.322;2023-03-01T14:51:19;12.50;;;9.05;;
53151;SDS011;39234;53.158;6.322;2023-03-01T14:53:45;16.23;;;10.05;;
53151;SDS011;39234;53.158;6.322;2023-03-01T14:56:15;13.10;;;9.18;;
53151;SDS011;39234;53.158;6.322;2023-03-01T14:58:45;13.80;;;9.15;;
53151;SDS011;39234;53.158;6.322;2023-03-01T15:01:15;14.43;;;9.05;;
53151;SDS011;39234;53.158;6.322;2023-03-01T15:03:44;12.38;;;8.55;;
53151;SDS011;39234;53.158;6.322;2023-03-01T15:06:14;13.93;;;10.18;;
53151;SDS011;39234;53.158;6.322;2023-03-01T15:08:47;12.90;;;9.40;;
53151;SDS011;39234;53.158;6.322;2023-03-01T15:13:50;13.63;;;9.98;;
53151;SDS011;39234;53.158;6.322;2023-03-01T15:18:52;15.15;;;10.60;;
53151;SDS011;39234;53.158;6.322;2023-03-01T15:21:26;15.30;;;9.48;;
53151;SDS011;39234;53.158;6.322;2023-03-01T15:26:43;14.73;;;10.82;;
53151;SDS011;39234;53.158;6.322;2023-03-01T15:29:16;13.30;;;9.45;;
53151;SDS011;39234;53.158;6.322;2023-03-01T15:31:53;15.15;;;10.65;;
53151;SDS011;39234;53.158;6.322;2023-03-01T15:34:30;13.13;;;10.75;;
53151;SDS011;39234;53.158;6.322;2023-03-01T15:36:58;13.13;;;10.35;;
53151;SDS011;39234;53.158;6.322;2023-03-01T15:39:43;15.52;;;10.40;;
53151;SDS011;39234;53.158;6.322;2023-03-01T15:48:02;13.90;;;10.15;;
53151;SDS011;39234;53.158;6.322;2023-03-01T15:50:40;15.48;;;10.90;;
53151;SDS011;39234;53.158;6.322;2023-03-01T15:53:11;16.35;;;10.68;;
53151;SDS011;39234;53.158;6.322;2023-03-01T15:55:39;15.10;;;10.77;;
53151;SDS011;39234;53.158;6.322;2023-03-01T15:58:06;14.55;;;10.68;;
53151;SDS011;39234;53.158;6.322;2023-03-01T16:00:37;16.05;;;10.77;;
53151;SDS011;39234;53.158;6.322;2023-03-01T16:03:04;15.10;;;9.25;;
53151;SDS011;39234;53.158;6.322;2023-03-01T16:05:31;15.10;;;10.68;;
53151;SDS011;39234;53.158;6.322;2023-03-01T16:07:59;15.70;;;11.35;;
53151;SDS011;39234;53.158;6.322;2023-03-01T16:10:25;16.20;;;11.07;;
53151;SDS011;39234;53.158;6.322;2023-03-01T16:12:51;15.52;;;10.15;;
53151;SDS011;39234;53.158;6.322;2023-03-01T16:15:19;16.30;;;10.55;;
53151;SDS011;39234;53.158;6.322;2023-03-01T16:17:47;16.40;;;11.63;;
53151;SDS011;39234;53.158;6.322;2023-03-01T16:20:13;16.25;;;10.60;;
53151;SDS011;39234;53.158;6.322;2023-03-01T16:22:42;17.58;;;11.23;;
53151;SDS011;39234;53.158;6.322;2023-03-01T16:25:13;15.85;;;10.73;;
53151;SDS011;39234;53.158;6.322;2023-03-01T16:27:43;16.10;;;10.93;;
53151;SDS011;39234;53.158;6.322;2023-03-01T16:30:10;16.30;;;11.20;;
53151;SDS011;39234;53.158;6.322;2023-03-01T16:32:38;18.90;;;11.52;;
53151;SDS011;39234;53.158;6.322;2023-03-01T16:35:04;15.70;;;11.82;;
53151;SDS011;39234;53.158;6.322;2023-03-01T16:37:35;16.05;;;12.70;;
53151;SDS011;39234;53.158;6.322;2023-03-01T16:40:02;21.42;;;13.20;;
53151;SDS011;39234;53.158;6.322;2023-03-01T16:42:32;18.23;;;12.98;;